createdAt,value
2019-04-03T00:00:00.423Z,13.57
2019-04-03T00:05:05.076Z,14.30
2019-04-03T00:10:07.409Z,13.87
2019-04-03T00:15:09.842Z,12.83
2019-04-03T00:20:12.375Z,13.13
2019-04-03T00:25:13.854Z,13.20
2019-04-03T00:30:15.802Z,14.20
2019-04-03T00:35:17.298Z,13.63
2019-04-03T00:40:18.827Z,14.40
2019-04-03T00:45:20.301Z,14.37
2019-04-03T00:50:22.115Z,14.93
2019-04-03T00:55:26.229Z,13.10
2019-04-03T01:00:27.428Z,13.70
2019-04-03T01:05:29.089Z,13.63
2019-04-03T01:10:30.819Z,13.63
2019-04-03T01:15:32.291Z,13.23
2019-04-03T01:20:34.575Z,13.67
2019-04-03T01:25:39.138Z,13.60
2019-04-03T01:30:40.980Z,13.60
2019-04-03T01:35:42.893Z,13.37
2019-04-03T01:40:44.395Z,14.30
2019-04-03T01:45:46.031Z,13.43
2019-04-03T01:50:47.841Z,14.93
2019-04-03T01:55:49.719Z,13.83
2019-04-03T02:00:51.490Z,14.23
2019-04-03T02:05:52.959Z,14.60
2019-04-03T02:10:54.540Z,14.87
2019-04-03T02:15:56.050Z,15.30
2019-04-03T02:20:58.148Z,14.70
2019-04-03T02:26:00.740Z,15.40
2019-04-03T02:31:04.907Z,15.00
2019-04-03T02:36:06.654Z,16.87
2019-04-03T02:41:08.187Z,16.03
2019-04-03T02:46:09.752Z,15.13
2019-04-03T02:51:11.318Z,15.93
2019-04-03T02:56:13.826Z,15.40
2019-04-03T03:01:15.698Z,15.53
2019-04-03T03:06:17.445Z,16.23
2019-04-03T03:11:23.238Z,17.10
2019-04-03T03:16:26.008Z,16.03
2019-04-03T03:21:28.491Z,15.83
2019-04-03T03:26:30.370Z,16.37
2019-04-03T03:32:00.321Z,17.13
2019-04-03T03:36:36.241Z,16.10
2019-04-03T03:41:38.933Z,16.23
2019-04-03T03:46:40.746Z,17.23
2019-04-03T03:51:43.836Z,17.37
2019-04-03T03:56:45.322Z,17.03
2019-04-03T04:01:47.991Z,16.97
2019-04-03T04:06:49.484Z,17.60
2019-04-03T04:11:51.108Z,17.17
2019-04-03T04:16:54.451Z,16.60
2019-04-03T04:21:56.520Z,17.77
2019-04-03T04:26:58.757Z,19.13
2019-04-03T04:32:00.406Z,16.63
2019-04-03T04:37:03.019Z,17.33
2019-04-03T04:42:05.049Z,17.67
2019-04-03T04:47:07.219Z,18.17
2019-04-03T04:52:08.954Z,17.23
2019-04-03T04:57:10.676Z,17.67
2019-04-03T05:02:12.166Z,17.40
2019-04-03T05:07:16.392Z,17.67
2019-04-03T05:12:17.448Z,18.87
2019-04-03T05:17:19.097Z,18.33
2019-04-03T05:22:23.229Z,18.53
2019-04-03T05:27:24.822Z,19.50
2019-04-03T05:32:26.371Z,18.53
2019-04-03T05:37:28.061Z,19.17
2019-04-03T05:42:30.003Z,18.73
2019-04-03T05:47:31.456Z,18.80
2019-04-03T05:52:33.165Z,18.30
2019-04-03T05:57:36.374Z,18.43
2019-04-03T06:02:37.871Z,19.83
2019-04-03T06:07:39.535Z,19.67
2019-04-03T06:12:41.107Z,18.80
2019-04-03T06:17:42.598Z,19.37
2019-04-03T06:22:44.094Z,20.30
2019-04-03T06:27:46.423Z,19.93
2019-04-03T06:32:48.712Z,18.43
2019-04-03T06:37:51.390Z,18.13
2019-04-03T06:42:54.359Z,19.70
2019-04-03T06:47:55.782Z,19.27
2019-04-03T06:52:57.686Z,19.13
2019-04-03T06:57:59.536Z,19.43
2019-04-03T07:03:01.515Z,19.97
2019-04-03T07:08:05.907Z,19.53
2019-04-03T07:13:07.776Z,19.87
2019-04-03T07:18:09.232Z,20.37
2019-04-03T07:23:11.028Z,19.10
2019-04-03T07:28:12.538Z,20.50
2019-04-03T07:33:16.503Z,20.53
2019-04-03T07:38:22.150Z,19.87
2019-04-03T07:43:26.151Z,19.93
2019-04-03T07:48:27.336Z,19.70
2019-04-03T07:53:28.909Z,18.57
2019-04-03T07:58:31.884Z,17.80
2019-04-03T08:03:33.748Z,19.00
2019-04-03T08:08:35.585Z,18.60
2019-04-03T08:13:38.419Z,17.07
2019-04-03T08:18:40.010Z,17.37
2019-04-03T08:23:41.855Z,19.20
2019-04-03T08:28:43.616Z,17.57
2019-04-03T08:33:45.313Z,18.27
2019-04-03T08:38:46.846Z,17.73
2019-04-03T08:43:48.723Z,18.70
2019-04-03T08:48:50.760Z,16.30
2019-04-03T08:53:54.344Z,17.67
2019-04-03T08:58:57.340Z,17.90
2019-04-03T09:03:59.201Z,16.77
2019-04-03T09:09:00.778Z,16.93
2019-04-03T09:14:02.351Z,17.10
2019-04-03T09:19:03.987Z,16.40
2019-04-03T09:24:06.061Z,16.80
2019-04-03T09:29:12.629Z,16.17
2019-04-03T09:34:13.523Z,17.33
2019-04-03T09:39:15.191Z,16.50
2019-04-03T09:44:16.636Z,17.80
2019-04-03T09:49:18.117Z,17.33
2019-04-03T09:54:19.932Z,17.27
2019-04-03T09:59:21.407Z,16.33
2019-04-03T10:04:25.369Z,15.30
2019-04-03T10:09:26.393Z,15.70
2019-04-03T10:14:28.929Z,16.27
2019-04-03T10:19:30.522Z,16.23
2019-04-03T10:24:32.294Z,16.33
2019-04-03T10:29:34.302Z,16.47
2019-04-03T10:34:36.231Z,16.03
2019-04-03T10:39:40.991Z,17.73
2019-04-03T10:44:41.557Z,17.83
2019-04-03T10:49:43.023Z,15.57
2019-04-03T10:54:44.659Z,16.27
2019-04-03T10:59:46.234Z,15.13
2019-04-03T11:04:48.768Z,14.10
2019-04-03T11:09:50.604Z,12.87
2019-04-03T11:14:52.160Z,14.23
2019-04-03T11:19:53.917Z,14.17
2019-04-03T11:24:55.423Z,14.17
2019-04-03T11:29:57.273Z,14.10
2019-04-03T11:34:58.805Z,15.37
2019-04-03T11:40:04.706Z,13.60
2019-04-03T11:45:06.908Z,13.37
2019-04-03T11:50:12.363Z,13.67
2019-04-03T11:55:14.543Z,13.70
2019-04-03T12:00:21.448Z,14.40
2019-04-03T12:05:23.032Z,14.13
2019-04-03T12:10:26.066Z,14.97
2019-04-03T12:15:28.097Z,14.57
2019-04-03T12:20:29.723Z,14.83
2019-04-03T12:25:34.308Z,16.37
2019-04-03T12:30:35.796Z,15.27
2019-04-03T12:35:40.685Z,15.57
2019-04-03T12:40:41.263Z,16.03
2019-04-03T12:45:42.730Z,16.47
2019-04-03T12:50:44.640Z,14.77
2019-04-03T12:55:46.595Z,15.77
2019-04-03T13:00:49.073Z,15.83
2019-04-03T13:05:50.740Z,14.93
2019-04-03T13:10:52.349Z,13.50
2019-04-03T13:15:53.902Z,14.20
2019-04-03T13:20:55.484Z,13.33
2019-04-03T13:25:57.452Z,13.70
2019-04-03T13:30:59.045Z,13.47
2019-04-03T13:36:00.628Z,14.40
2019-04-03T13:41:04.624Z,13.37
2019-04-03T13:46:05.852Z,12.93
2019-04-03T13:51:07.393Z,11.73
2019-04-03T13:56:11.167Z,11.80
2019-04-03T14:01:12.699Z,11.87
2019-04-03T14:06:14.594Z,12.80
2019-04-03T14:11:16.467Z,12.83
2019-04-03T14:16:21.666Z,12.87
2019-04-03T14:21:21.362Z,12.37
2019-04-03T14:26:22.852Z,13.77
2019-04-03T14:31:34.852Z,14.13
2019-04-03T14:36:28.959Z,13.13
2019-04-03T14:41:30.920Z,12.53
2019-04-03T14:46:32.494Z,13.40
2019-04-03T14:51:34.215Z,13.10
2019-04-03T14:56:36.226Z,12.77
2019-04-03T15:01:38.457Z,13.27
2019-04-03T15:06:40.246Z,12.23
2019-04-03T15:11:41.863Z,12.73
2019-04-03T15:16:43.341Z,11.53
2019-04-03T15:21:45.292Z,11.90
2019-04-03T15:26:47.007Z,12.00
2019-04-03T15:31:48.583Z,12.40
2019-04-03T15:36:51.549Z,11.80
2019-04-03T15:41:54.102Z,12.27
2019-04-03T15:46:56.137Z,11.27
2019-04-03T15:51:58.089Z,11.70
2019-04-03T15:56:59.953Z,11.53
2019-04-03T16:02:02.051Z,11.47
2019-04-03T16:07:05.109Z,11.37
2019-04-03T16:12:07.905Z,11.30
2019-04-03T16:17:10.258Z,11.17
2019-04-03T16:22:11.786Z,11.17
2019-04-03T16:27:13.258Z,11.87
2019-04-03T16:32:15.036Z,11.93
2019-04-03T16:37:16.915Z,11.50
2019-04-03T16:42:18.479Z,11.37
2019-04-03T16:47:20.059Z,10.87
2019-04-03T16:52:22.179Z,12.17
2019-04-03T16:57:24.115Z,11.87
2019-04-03T17:02:27.876Z,12.50
2019-04-03T17:07:30.435Z,11.93
2019-04-03T17:12:32.202Z,11.40
2019-04-03T17:17:35.478Z,12.90
2019-04-03T17:22:40.848Z,11.00
2019-04-03T17:27:54.088Z,12.10
2019-04-03T17:32:52.100Z,12.47
2019-04-03T17:37:54.073Z,11.47
2019-04-03T17:42:55.566Z,12.10
2019-04-03T17:47:57.369Z,12.30
2019-04-03T17:52:58.899Z,12.27
2019-04-03T17:58:00.363Z,11.93
2019-04-03T18:03:01.855Z,12.27
2019-04-03T18:08:03.423Z,11.23
2019-04-03T18:13:04.987Z,12.17
2019-04-03T18:18:06.585Z,11.83
2019-04-03T18:23:10.587Z,12.23
2019-04-03T18:28:11.861Z,12.43
2019-04-03T18:33:16.684Z,12.00
2019-04-03T18:38:17.102Z,12.33
2019-04-03T18:43:21.597Z,12.90
2019-04-03T18:48:22.391Z,13.23
2019-04-03T18:53:24.145Z,13.33
2019-04-03T18:58:25.663Z,13.77
2019-04-03T19:03:27.538Z,13.47
2019-04-03T19:08:29.504Z,13.83
2019-04-03T19:13:31.081Z,14.07
2019-04-03T19:18:32.669Z,14.03
2019-04-03T19:23:34.435Z,13.90
2019-04-03T19:28:36.162Z,14.37
2019-04-03T19:33:37.667Z,15.03
2019-04-03T19:38:39.616Z,15.27
2019-04-03T19:43:41.590Z,15.80
2019-04-03T19:48:43.263Z,14.77
2019-04-03T19:53:53.610Z,14.37
2019-04-03T19:58:48.580Z,14.97
2019-04-03T20:03:50.152Z,15.37
2019-04-03T20:09:11.611Z,16.43
2019-04-03T20:14:13.161Z,15.37
2019-04-03T20:19:15.919Z,15.73
2019-04-03T20:24:17.685Z,16.73
2019-04-03T20:29:19.209Z,16.73
2019-04-03T20:34:21.131Z,17.23
2019-04-03T20:39:22.652Z,15.90
2019-04-03T20:44:24.108Z,17.00
2019-04-03T20:49:25.586Z,16.63
2019-04-03T20:54:27.238Z,16.23
2019-04-03T20:59:30.154Z,17.43
2019-04-03T21:04:32.287Z,17.20
2019-04-03T21:09:33.787Z,16.40
2019-04-03T21:14:35.279Z,15.83
2019-04-03T21:19:36.825Z,17.07
2019-04-03T21:24:38.665Z,17.03
2019-04-03T21:29:40.140Z,17.97
2019-04-03T21:34:42.934Z,15.80
2019-04-03T21:39:44.535Z,16.80
2019-04-03T21:44:46.025Z,16.13
2019-04-03T21:49:48.176Z,15.13
2019-04-03T21:54:49.867Z,16.47
2019-04-03T21:59:51.335Z,16.53
2019-04-03T22:04:54.027Z,16.80
2019-04-03T22:09:56.059Z,15.70
2019-04-03T22:14:58.139Z,15.20
2019-04-03T22:19:59.656Z,15.20
2019-04-03T22:25:01.211Z,15.20
2019-04-03T22:30:04.795Z,15.80
2019-04-03T22:35:06.358Z,15.40
2019-04-03T22:40:10.090Z,15.50
2019-04-03T22:45:11.431Z,14.93
2019-04-03T22:50:13.255Z,14.67
2019-04-03T22:55:15.510Z,15.23
2019-04-03T23:00:17.375Z,14.63
2019-04-03T23:05:18.881Z,15.50
2019-04-03T23:10:20.355Z,15.10
2019-04-03T23:15:22.188Z,15.20
2019-04-03T23:20:23.683Z,14.63
2019-04-03T23:25:25.132Z,14.93
2019-04-03T23:30:26.597Z,14.47
2019-04-03T23:35:28.072Z,15.60
2019-04-03T23:40:29.655Z,16.13
2019-04-03T23:45:31.604Z,15.90
2019-04-03T23:50:33.075Z,15.07
2019-04-03T23:55:36.241Z,15.47
